sensor_id;sensor_type;location;lat;lon;timestamp;pressure;altitude;pressure_sealevel;temperature;humidity
13486;BME280;6815;59.336;17.998;2023-07-13T00:02:00;52081.16;;;-145.37;85.04
13486;BME280;6815;59.336;17.998;2023-07-13T00:04:26;52117.09;;;-145.37;85.98
13486;BME280;6815;59.336;17.998;2023-07-13T00:06:53;52093.16;;;-145.37;85.43
13486;BME280;6815;59.336;17.998;2023-07-13T00:09:19;52103.13;;;-145.37;85.54
13486;BME280;6815;59.336;17.998;2023-07-13T00:11:49;52113.09;;;-145.37;84.43
13486;BME280;6815;59.336;17.998;2023-07-13T00:14:15;52087.16;;;-145.37;84.81
13486;BME280;6815;59.336;17.998;2023-07-13T00:16:41;52087.16;;;-145.37;84.95
13486;BME280;6815;59.336;17.998;2023-07-13T00:19:09;52105.13;;;-145.37;84.72
13486;BME280;6815;59.336;17.998;2023-07-13T00:21:35;52085.16;;;-145.37;85.25
13486;BME280;6815;59.336;17.998;2023-07-13T00:24:01;52109.13;;;-145.37;84.80
13486;BME280;6815;59.336;17.998;2023-07-13T00:26:27;52081.16;;;-145.37;84.26
13486;BME280;6815;59.336;17.998;2023-07-13T00:28:52;52059.22;;;-145.37;84.11
13486;BME280;6815;59.336;17.998;2023-07-13T00:31:18;52079.19;;;-145.37;84.05
13486;BME280;6815;59.336;17.998;2023-07-13T00:33:43;52083.16;;;-145.37;84.42
13486;BME280;6815;59.336;17.998;2023-07-13T00:36:10;52091.16;;;-145.37;84.38
13486;BME280;6815;59.336;17.998;2023-07-13T00:38:36;52115.09;;;-145.37;84.49
13486;BME280;6815;59.336;17.998;2023-07-13T00:41:03;52085.16;;;-145.37;84.34
13486;BME280;6815;59.336;17.998;2023-07-13T00:43:29;52121.09;;;-145.37;84.70
13486;BME280;6815;59.336;17.998;2023-07-13T00:48:29;52063.22;;;-145.37;84.48
13486;BME280;6815;59.336;17.998;2023-07-13T00:50:58;52095.16;;;-145.37;84.63
13486;BME280;6815;59.336;17.998;2023-07-13T00:53:27;52113.09;;;-145.37;84.48
13486;BME280;6815;59.336;17.998;2023-07-13T00:55:55;52055.22;;;-145.37;84.48
13486;BME280;6815;59.336;17.998;2023-07-13T00:58:23;52069.19;;;-145.37;84.28
13486;BME280;6815;59.336;17.998;2023-07-13T01:00:48;52161.03;;;-145.37;84.58
13486;BME280;6815;59.336;17.998;2023-07-13T01:03:16;52091.16;;;-145.37;84.41
13486;BME280;6815;59.336;17.998;2023-07-13T01:05:42;52131.06;;;-145.37;84.48
13486;BME280;6815;59.336;17.998;2023-07-13T01:08:08;52075.19;;;-145.37;84.51
13486;BME280;6815;59.336;17.998;2023-07-13T01:10:34;52093.16;;;-145.37;84.51
13486;BME280;6815;59.336;17.998;2023-07-13T01:13:07;52089.16;;;-145.37;84.91
13486;BME280;6815;59.336;17.998;2023-07-13T01:15:36;52089.16;;;-145.37;85.19
13486;BME280;6815;59.336;17.998;2023-07-13T01:18:04;52085.16;;;-145.37;85.22
13486;BME280;6815;59.336;17.998;2023-07-13T01:20:31;52105.13;;;-145.37;87.25
13486;BME280;6815;59.336;17.998;2023-07-13T01:23:02;52121.09;;;-145.37;85.79
13486;BME280;6815;59.336;17.998;2023-07-13T01:25:28;52113.09;;;-145.37;84.90
13486;BME280;6815;59.336;17.998;2023-07-13T01:27:54;52109.13;;;-145.37;84.65
13486;BME280;6815;59.336;17.998;2023-07-13T01:30:19;52077.19;;;-145.37;83.72
13486;BME280;6815;59.336;17.998;2023-07-13T01:32:45;52113.09;;;-145.37;85.14
13486;BME280;6815;59.336;17.998;2023-07-13T01:35:10;52085.16;;;-145.37;84.40
13486;BME280;6815;59.336;17.998;2023-07-13T01:37:37;52133.06;;;-145.37;85.40
13486;BME280;6815;59.336;17.998;2023-07-13T01:40:04;52109.13;;;-145.37;87.31
13486;BME280;6815;59.336;17.998;2023-07-13T01:42:30;52081.16;;;-145.37;86.36
13486;BME280;6815;59.336;17.998;2023-07-13T01:44:55;52085.16;;;-145.37;86.34
13486;BME280;6815;59.336;17.998;2023-07-13T01:47:22;52145.03;;;-145.37;85.98
13486;BME280;6815;59.336;17.998;2023-07-13T01:49:48;52099.13;;;-145.37;86.20
13486;BME280;6815;59.336;17.998;2023-07-13T01:52:16;52087.16;;;-145.37;86.81
13486;BME280;6815;59.336;17.998;2023-07-13T01:54:41;52089.16;;;-145.37;87.00
13486;BME280;6815;59.336;17.998;2023-07-13T01:57:06;52103.13;;;-145.37;87.13
13486;BME280;6815;59.336;17.998;2023-07-13T01:59:32;52073.19;;;-145.37;86.83
13486;BME280;6815;59.336;17.998;2023-07-13T02:01:58;52111.13;;;-145.37;87.25
13486;BME280;6815;59.336;17.998;2023-07-13T02:04:24;52091.16;;;-145.37;87.06
13486;BME280;6815;59.336;17.998;2023-07-13T02:06:49;52115.09;;;-145.37;86.03
13486;BME280;6815;59.336;17.998;2023-07-13T02:09:15;52065.19;;;-145.37;85.40
13486;BME280;6815;59.336;17.998;2023-07-13T02:11:40;52103.13;;;-145.37;86.21
13486;BME280;6815;59.336;17.998;2023-07-13T02:14:05;52101.13;;;-145.37;88.44
13486;BME280;6815;59.336;17.998;2023-07-13T02:16:31;52121.09;;;-145.37;87.46
13486;BME280;6815;59.336;17.998;2023-07-13T02:18:56;52155.03;;;-145.37;88.76
13486;BME280;6815;59.336;17.998;2023-07-13T02:21:22;52101.13;;;-145.37;87.93
13486;BME280;6815;59.336;17.998;2023-07-13T02:23:48;52111.13;;;-145.37;85.31
13486;BME280;6815;59.336;17.998;2023-07-13T02:26:14;52123.09;;;-145.37;86.35
13486;BME280;6815;59.336;17.998;2023-07-13T02:28:40;52099.13;;;-145.37;87.73
13486;BME280;6815;59.336;17.998;2023-07-13T02:31:10;52103.13;;;-145.37;88.55
13486;BME280;6815;59.336;17.998;2023-07-13T02:33:35;52145.03;;;-145.37;87.80
13486;BME280;6815;59.336;17.998;2023-07-13T02:36:01;52105.13;;;-145.37;88.41
13486;BME280;6815;59.336;17.998;2023-07-13T02:38:27;52103.13;;;-145.37;87.61
13486;BME280;6815;59.336;17.998;2023-07-13T02:40:53;52113.09;;;-145.37;88.14
13486;BME280;6815;59.336;17.998;2023-07-13T02:43:18;52129.06;;;-145.37;87.80
13486;BME280;6815;59.336;17.998;2023-07-13T02:45:44;52059.22;;;-145.37;87.42
13486;BME280;6815;59.336;17.998;2023-07-13T02:48:10;52095.16;;;-145.37;87.25
13486;BME280;6815;59.336;17.998;2023-07-13T02:50:36;52137.06;;;-145.37;88.25
13486;BME280;6815;59.336;17.998;2023-07-13T02:53:01;52149.03;;;-145.37;87.78
13486;BME280;6815;59.336;17.998;2023-07-13T02:55:27;52121.09;;;-145.37;87.78
13486;BME280;6815;59.336;17.998;2023-07-13T02:57:52;52153.03;;;-145.37;89.17
13486;BME280;6815;59.336;17.998;2023-07-13T03:00:19;52105.13;;;-145.37;87.71
13486;BME280;6815;59.336;17.998;2023-07-13T03:02:45;52083.16;;;-145.37;87.09
13486;BME280;6815;59.336;17.998;2023-07-13T03:05:11;52103.13;;;-145.37;85.81
13486;BME280;6815;59.336;17.998;2023-07-13T03:07:38;52101.13;;;-145.37;85.92
13486;BME280;6815;59.336;17.998;2023-07-13T03:10:04;52133.06;;;-145.37;85.47
13486;BME280;6815;59.336;17.998;2023-07-13T03:12:29;52091.16;;;-145.37;85.94
13486;BME280;6815;59.336;17.998;2023-07-13T03:14:55;52135.06;;;-145.37;87.32
13486;BME280;6815;59.336;17.998;2023-07-13T03:17:20;52103.13;;;-145.37;86.71
13486;BME280;6815;59.336;17.998;2023-07-13T03:19:45;52089.16;;;-145.37;84.56
13486;BME280;6815;59.336;17.998;2023-07-13T03:22:16;52097.13;;;-145.37;84.52
13486;BME280;6815;59.336;17.998;2023-07-13T03:24:41;52135.06;;;-145.37;83.40
13486;BME280;6815;59.336;17.998;2023-07-13T03:27:07;52206.94;;;-145.37;85.37
13486;BME280;6815;59.336;17.998;2023-07-13T03:29:32;52123.09;;;-145.37;85.55
13486;BME280;6815;59.336;17.998;2023-07-13T03:31:58;52121.09;;;-145.37;86.31
13486;BME280;6815;59.336;17.998;2023-07-13T03:34:23;52159.03;;;-145.37;86.49
13486;BME280;6815;59.336;17.998;2023-07-13T03:36:49;52123.09;;;-145.37;86.72
13486;BME280;6815;59.336;17.998;2023-07-13T03:39:14;52129.06;;;-145.37;84.51
13486;BME280;6815;59.336;17.998;2023-07-13T03:41:40;52093.16;;;-145.37;86.08
13486;BME280;6815;59.336;17.998;2023-07-13T03:44:05;52153.03;;;-145.37;85.35
13486;BME280;6815;59.336;17.998;2023-07-13T03:46:31;52111.13;;;-145.37;83.75
13486;BME280;6815;59.336;17.998;2023-07-13T03:48:57;52103.13;;;-145.37;84.19
13486;BME280;6815;59.336;17.998;2023-07-13T03:51:22;52143.06;;;-145.37;83.35
13486;BME280;6815;59.336;17.998;2023-07-13T03:53:48;52103.13;;;-145.37;85.10
13486;BME280;6815;59.336;17.998;2023-07-13T03:56:14;52129.06;;;-145.37;85.13
13486;BME280;6815;59.336;17.998;2023-07-13T03:58:41;52101.13;;;-145.37;83.83
13486;BME280;6815;59.336;17.998;2023-07-13T04:01:09;52111.13;;;-145.37;83.46
13486;BME280;6815;59.336;17.998;2023-07-13T04:03:36;52133.06;;;-145.37;83.64
13486;BME280;6815;59.336;17.998;2023-07-13T04:06:03;52065.19;;;-145.37;84.57
13486;BME280;6815;59.336;17.998;2023-07-13T04:08:33;52133.06;;;-145.37;84.87
13486;BME280;6815;59.336;17.998;2023-07-13T04:10:59;52121.09;;;-145.37;84.23
13486;BME280;6815;59.336;17.998;2023-07-13T04:13:26;52089.16;;;-145.37;82.31
13486;BME280;6815;59.336;17.998;2023-07-13T04:15:52;52127.09;;;-145.37;83.54
13486;BME280;6815;59.336;17.998;2023-07-13T04:18:18;52123.09;;;-145.37;82.64
13486;BME280;6815;59.336;17.998;2023-07-13T04:20:48;52095.16;;;-145.37;81.78
13486;BME280;6815;59.336;17.998;2023-07-13T04:23:15;52133.06;;;-145.37;83.49
13486;BME280;6815;59.336;17.998;2023-07-13T04:25:45;52157.03;;;-145.37;82.81
13486;BME280;6815;59.336;17.998;2023-07-13T04:28:10;52119.09;;;-145.37;83.03
13486;BME280;6815;59.336;17.998;2023-07-13T04:30:36;52111.13;;;-145.37;82.70
13486;BME280;6815;59.336;17.998;2023-07-13T04:33:01;52103.13;;;-145.37;83.05
13486;BME280;6815;59.336;17.998;2023-07-13T04:35:27;52113.09;;;-145.37;82.40
13486;BME280;6815;59.336;17.998;2023-07-13T04:37:52;52101.13;;;-145.37;81.13
13486;BME280;6815;59.336;17.998;2023-07-13T04:40:19;52089.16;;;-145.37;82.90
13486;BME280;6815;59.336;17.998;2023-07-13T04:42:45;52131.06;;;-145.37;82.78
13486;BME280;6815;59.336;17.998;2023-07-13T04:45:12;52133.06;;;-145.37;83.09
13486;BME280;6815;59.336;17.998;2023-07-13T04:47:38;52105.13;;;-145.37;82.52
13486;BME280;6815;59.336;17.998;2023-07-13T04:50:03;52161.03;;;-145.37;80.63
13486;BME280;6815;59.336;17.998;2023-07-13T04:52:29;52125.09;;;-145.37;81.75
13486;BME280;6815;59.336;17.998;2023-07-13T04:54:55;52129.06;;;-145.37;79.83
13486;BME280;6815;59.336;17.998;2023-07-13T04:57:20;52177.00;;;-145.37;79.73
13486;BME280;6815;59.336;17.998;2023-07-13T04:59:46;52087.16;;;-145.37;79.58
13486;BME280;6815;59.336;17.998;2023-07-13T05:02:11;52224.91;;;-145.37;78.21
13486;BME280;6815;59.336;17.998;2023-07-13T05:04:36;52089.16;;;-145.37;76.56
13486;BME280;6815;59.336;17.998;2023-07-13T05:07:02;52157.03;;;-145.37;75.88
13486;BME280;6815;59.336;17.998;2023-07-13T05:09:27;52105.13;;;-145.37;75.75
13486;BME280;6815;59.336;17.998;2023-07-13T05:11:53;52143.06;;;-145.37;75.70
13486;BME280;6815;59.336;17.998;2023-07-13T05:14:18;52093.16;;;-145.37;74.97
13486;BME280;6815;59.336;17.998;2023-07-13T05:16:44;52089.16;;;-145.37;75.68
13486;BME280;6815;59.336;17.998;2023-07-13T05:19:09;52123.09;;;-145.37;75.80
13486;BME280;6815;59.336;17.998;2023-07-13T05:21:35;52111.13;;;-145.37;74.60
13486;BME280;6815;59.336;17.998;2023-07-13T05:24:00;52103.13;;;-145.37;75.57
13486;BME280;6815;59.336;17.998;2023-07-13T05:26:26;52131.06;;;-145.37;75.88
13486;BME280;6815;59.336;17.998;2023-07-13T05:28:52;52085.16;;;-145.37;74.24
13486;BME280;6815;59.336;17.998;2023-07-13T05:31:17;52087.16;;;-145.37;70.49
13486;BME280;6815;59.336;17.998;2023-07-13T05:33:43;52115.09;;;-145.37;69.98
13486;BME280;6815;59.336;17.998;2023-07-13T05:36:08;52087.16;;;-145.37;70.89
13486;BME280;6815;59.336;17.998;2023-07-13T05:38:34;52087.16;;;-145.37;71.74
13486;BME280;6815;59.336;17.998;2023-07-13T05:41:00;52121.09;;;-145.37;69.84
13486;BME280;6815;59.336;17.998;2023-07-13T05:43:25;52089.16;;;-145.37;67.18
13486;BME280;6815;59.336;17.998;2023-07-13T05:45:53;52101.13;;;-145.37;65.70
13486;BME280;6815;59.336;17.998;2023-07-13T05:48:19;52075.19;;;-145.37;65.42
13486;BME280;6815;59.336;17.998;2023-07-13T05:50:45;52079.19;;;-145.37;64.80
13486;BME280;6815;59.336;17.998;2023-07-13T05:53:11;52087.16;;;-145.37;65.95
13486;BME280;6815;59.336;17.998;2023-07-13T05:55:43;52105.13;;;-145.37;65.55
13486;BME280;6815;59.336;17.998;2023-07-13T05:58:09;52093.16;;;-145.37;66.25
13486;BME280;6815;59.336;17.998;2023-07-13T06:00:35;52087.16;;;-145.37;65.88
13486;BME280;6815;59.336;17.998;2023-07-13T06:03:00;52113.09;;;-145.37;65.04
13486;BME280;6815;59.336;17.998;2023-07-13T06:05:26;52085.16;;;-145.37;65.28
13486;BME280;6815;59.336;17.998;2023-07-13T06:07:54;52071.19;;;-145.37;65.64
13486;BME280;6815;59.336;17.998;2023-07-13T06:10:20;52109.13;;;-145.37;64.72
13486;BME280;6815;59.336;17.998;2023-07-13T06:12:45;52067.19;;;-145.37;62.77
13486;BME280;6815;59.336;17.998;2023-07-13T06:15:11;52093.16;;;-145.37;59.85
13486;BME280;6815;59.336;17.998;2023-07-13T06:17:36;52069.19;;;-145.37;57.27
13486;BME280;6815;59.336;17.998;2023-07-13T06:20:02;52067.19;;;-145.37;57.42
13486;BME280;6815;59.336;17.998;2023-07-13T06:22:27;52105.13;;;-145.37;56.76
13486;BME280;6815;59.336;17.998;2023-07-13T06:24:53;52057.22;;;-145.37;55.46
13486;BME280;6815;59.336;17.998;2023-07-13T06:27:18;52081.16;;;-145.37;54.63
13486;BME280;6815;59.336;17.998;2023-07-13T06:29:44;52061.22;;;-145.37;54.40
13486;BME280;6815;59.336;17.998;2023-07-13T06:32:10;52085.16;;;-145.37;54.42
13486;BME280;6815;59.336;17.998;2023-07-13T06:34:36;52073.19;;;-145.37;53.17
13486;BME280;6815;59.336;17.998;2023-07-13T06:37:01;52085.16;;;-145.37;52.71
13486;BME280;6815;59.336;17.998;2023-07-13T06:39:27;52055.22;;;-145.37;52.76
13486;BME280;6815;59.336;17.998;2023-07-13T06:41:52;52047.25;;;-145.37;52.05
13486;BME280;6815;59.336;17.998;2023-07-13T06:44:18;52085.16;;;-145.37;51.95
13486;BME280;6815;59.336;17.998;2023-07-13T06:46:43;52035.25;;;-145.37;51.66
13486;BME280;6815;59.336;17.998;2023-07-13T06:49:09;52079.19;;;-145.37;51.21
13486;BME280;6815;59.336;17.998;2023-07-13T06:51:34;52073.19;;;-145.37;51.92
13486;BME280;6815;59.336;17.998;2023-07-13T06:54:00;52051.22;;;-145.37;50.22
13486;BME280;6815;59.336;17.998;2023-07-13T06:56:25;52047.25;;;-145.37;50.08
13486;BME280;6815;59.336;17.998;2023-07-13T06:58:51;52083.16;;;-145.37;50.02
13486;BME280;6815;59.336;17.998;2023-07-13T07:01:16;52059.22;;;-145.37;49.55
13486;BME280;6815;59.336;17.998;2023-07-13T07:03:42;52043.25;;;-145.37;49.38
13486;BME280;6815;59.336;17.998;2023-07-13T07:06:21;52033.25;;;-145.37;49.74
13486;BME280;6815;59.336;17.998;2023-07-13T07:08:48;52055.22;;;-145.37;49.95
13486;BME280;6815;59.336;17.998;2023-07-13T07:11:18;52055.22;;;-145.37;49.11
13486;BME280;6815;59.336;17.998;2023-07-13T07:13:43;52055.22;;;-145.37;49.35
13486;BME280;6815;59.336;17.998;2023-07-13T07:16:09;52091.16;;;-145.37;48.52
13486;BME280;6815;59.336;17.998;2023-07-13T07:18:35;52043.25;;;-145.37;49.27
13486;BME280;6815;59.336;17.998;2023-07-13T07:21:00;52095.16;;;-145.37;49.09
13486;BME280;6815;59.336;17.998;2023-07-13T07:23:26;52049.22;;;-145.37;48.75
13486;BME280;6815;59.336;17.998;2023-07-13T07:25:51;52041.25;;;-145.37;49.04
13486;BME280;6815;59.336;17.998;2023-07-13T07:28:18;52051.22;;;-145.37;49.01
13486;BME280;6815;59.336;17.998;2023-07-13T07:30:44;52005.31;;;-145.37;49.04
13486;BME280;6815;59.336;17.998;2023-07-13T07:33:10;52075.19;;;-145.37;48.83
13486;BME280;6815;59.336;17.998;2023-07-13T07:35:35;52045.25;;;-145.37;48.62
13486;BME280;6815;59.336;17.998;2023-07-13T07:38:01;52027.28;;;-145.37;48.89
13486;BME280;6815;59.336;17.998;2023-07-13T07:40:26;52073.19;;;-145.37;48.68
13486;BME280;6815;59.336;17.998;2023-07-13T07:42:52;52101.13;;;-145.37;48.32
13486;BME280;6815;59.336;17.998;2023-07-13T07:45:18;52045.25;;;-145.37;48.17
13486;BME280;6815;59.336;17.998;2023-07-13T07:47:44;52017.28;;;-145.37;48.61
13486;BME280;6815;59.336;17.998;2023-07-13T07:50:10;52037.25;;;-145.37;48.53
13486;BME280;6815;59.336;17.998;2023-07-13T07:52:36;52039.25;;;-145.37;49.52
13486;BME280;6815;59.336;17.998;2023-07-13T07:55:04;52017.28;;;-145.37;47.80
13486;BME280;6815;59.336;17.998;2023-07-13T07:57:30;52031.25;;;-145.37;47.78
13486;BME280;6815;59.336;17.998;2023-07-13T07:59:56;52087.16;;;-145.37;47.08
13486;BME280;6815;59.336;17.998;2023-07-13T08:02:21;52027.28;;;-145.37;46.73
13486;BME280;6815;59.336;17.998;2023-07-13T08:04:47;52069.19;;;-145.37;46.29
13486;BME280;6815;59.336;17.998;2023-07-13T08:07:12;52033.25;;;-145.37;46.84
13486;BME280;6815;59.336;17.998;2023-07-13T08:09:38;52045.25;;;-145.37;47.15
13486;BME280;6815;59.336;17.998;2023-07-13T08:12:04;52075.19;;;-145.37;46.87
13486;BME280;6815;59.336;17.998;2023-07-13T08:14:29;52065.19;;;-145.37;47.05
13486;BME280;6815;59.336;17.998;2023-07-13T08:16:55;52077.19;;;-145.37;46.05
13486;BME280;6815;59.336;17.998;2023-07-13T08:19:20;52031.25;;;-145.37;45.04
13486;BME280;6815;59.336;17.998;2023-07-13T08:21:46;52061.22;;;-145.37;44.89
13486;BME280;6815;59.336;17.998;2023-07-13T08:24:13;52167.00;;;-145.37;45.18
13486;BME280;6815;59.336;17.998;2023-07-13T08:26:39;52025.28;;;-145.37;44.36
13486;BME280;6815;59.336;17.998;2023-07-13T08:29:04;52033.25;;;-145.37;44.65
13486;BME280;6815;59.336;17.998;2023-07-13T08:31:30;52055.22;;;-145.37;45.63
13486;BME280;6815;59.336;17.998;2023-07-13T08:33:56;52135.06;;;-145.37;44.92
13486;BME280;6815;59.336;17.998;2023-07-13T08:36:21;52071.19;;;-145.37;44.72
13486;BME280;6815;59.336;17.998;2023-07-13T08:38:47;52019.28;;;-145.37;45.15
13486;BME280;6815;59.336;17.998;2023-07-13T08:41:17;52043.25;;;-145.37;45.03
13486;BME280;6815;59.336;17.998;2023-07-13T08:43:47;52063.22;;;-145.37;45.34
13486;BME280;6815;59.336;17.998;2023-07-13T08:48:56;52073.19;;;-145.37;45.23
13486;BME280;6815;59.336;17.998;2023-07-13T08:51:45;52085.16;;;-145.37;45.67
13486;BME280;6815;59.336;17.998;2023-07-13T08:54:27;52049.22;;;-145.37;45.99
13486;BME280;6815;59.336;17.998;2023-07-13T08:56:53;52135.06;;;-145.37;44.89
13486;BME280;6815;59.336;17.998;2023-07-13T08:59:25;52049.22;;;-145.37;45.07
13486;BME280;6815;59.336;17.998;2023-07-13T09:02:20;52033.25;;;-145.37;44.77
13486;BME280;6815;59.336;17.998;2023-07-13T09:10:41;52055.22;;;-145.37;45.21
13486;BME280;6815;59.336;17.998;2023-07-13T09:13:37;52067.19;;;-145.37;45.96
13486;BME280;6815;59.336;17.998;2023-07-13T09:16:05;52101.13;;;-145.37;45.67
13486;BME280;6815;59.336;17.998;2023-07-13T09:18:35;52085.16;;;-145.37;45.66
13486;BME280;6815;59.336;17.998;2023-07-13T09:23:47;52063.22;;;-145.37;46.04
13486;BME280;6815;59.336;17.998;2023-07-13T09:26:16;52077.19;;;-145.37;46.36
13486;BME280;6815;59.336;17.998;2023-07-13T09:29:06;52099.13;;;-145.37;46.09
13486;BME280;6815;59.336;17.998;2023-07-13T09:31:43;52099.13;;;-145.37;46.22
13486;BME280;6815;59.336;17.998;2023-07-13T09:34:11;52081.16;;;-145.37;45.78
13486;BME280;6815;59.336;17.998;2023-07-13T09:36:37;52079.19;;;-145.37;44.66
13486;BME280;6815;59.336;17.998;2023-07-13T09:44:11;52065.19;;;-145.37;43.98
13486;BME280;6815;59.336;17.998;2023-07-13T09:46:51;52089.16;;;-145.37;44.76
13486;BME280;6815;59.336;17.998;2023-07-13T09:49:17;52083.16;;;-145.37;44.52
13486;BME280;6815;59.336;17.998;2023-07-13T09:51:43;52069.19;;;-145.37;44.67
13486;BME280;6815;59.336;17.998;2023-07-13T09:54:21;52073.19;;;-145.37;44.96
13486;BME280;6815;59.336;17.998;2023-07-13T09:56:57;52065.19;;;-145.37;44.58
13486;BME280;6815;59.336;17.998;2023-07-13T09:59:27;52095.16;;;-145.37;44.80
13486;BME280;6815;59.336;17.998;2023-07-13T10:01:54;52079.19;;;-145.37;44.55
13486;BME280;6815;59.336;17.998;2023-07-13T10:04:26;52089.16;;;-145.37;44.32
13486;BME280;6815;59.336;17.998;2023-07-13T10:07:05;52085.16;;;-145.37;44.14
13486;BME280;6815;59.336;17.998;2023-07-13T10:09:31;52067.19;;;-145.37;44.69
13486;BME280;6815;59.336;17.998;2023-07-13T10:11:57;52061.22;;;-145.37;44.82
13486;BME280;6815;59.336;17.998;2023-07-13T10:14:23;52053.22;;;-145.37;44.69
13486;BME280;6815;59.336;17.998;2023-07-13T10:16:56;52087.16;;;-145.37;44.76
13486;BME280;6815;59.336;17.998;2023-07-13T10:19:26;52093.16;;;-145.37;43.51
13486;BME280;6815;59.336;17.998;2023-07-13T10:21:59;52047.25;;;-145.37;42.80
13486;BME280;6815;59.336;17.998;2023-07-13T10:24:27;52073.19;;;-145.37;42.43
13486;BME280;6815;59.336;17.998;2023-07-13T10:27:20;52097.13;;;-145.37;42.88
13486;BME280;6815;59.336;17.998;2023-07-13T10:30:00;52075.19;;;-145.37;43.50
13486;BME280;6815;59.336;17.998;2023-07-13T10:32:27;52079.19;;;-145.37;43.67
13486;BME280;6815;59.336;17.998;2023-07-13T10:34:53;52045.25;;;-145.37;43.36
13486;BME280;6815;59.336;17.998;2023-07-13T10:37:24;52125.09;;;-145.37;42.86
13486;BME280;6815;59.336;17.998;2023-07-13T10:39:54;52147.03;;;-145.37;42.49
13486;BME280;6815;59.336;17.998;2023-07-13T10:42:30;52075.19;;;-145.37;42.09
13486;BME280;6815;59.336;17.998;2023-07-13T10:44:57;52099.13;;;-145.37;42.25
13486;BME280;6815;59.336;17.998;2023-07-13T10:47:24;52061.22;;;-145.37;42.46
13486;BME280;6815;59.336;17.998;2023-07-13T10:49:54;52043.25;;;-145.37;42.18
13486;BME280;6815;59.336;17.998;2023-07-13T10:52:41;52021.28;;;-145.37;42.27
13486;BME280;6815;59.336;17.998;2023-07-13T10:55:40;52077.19;;;-145.37;43.24
13486;BME280;6815;59.336;17.998;2023-07-13T11:01:01;52093.16;;;-145.37;42.86
13486;BME280;6815;59.336;17.998;2023-07-13T11:03:30;52089.16;;;-145.37;42.63
13486;BME280;6815;59.336;17.998;2023-07-13T11:10:56;52075.19;;;-145.37;43.12
13486;BME280;6815;59.336;17.998;2023-07-13T11:13:55;52101.13;;;-145.37;42.54
13486;BME280;6815;59.336;17.998;2023-07-13T11:19:07;52085.16;;;-145.37;41.74
13486;BME280;6815;59.336;17.998;2023-07-13T11:21:34;52113.09;;;-145.37;42.33
13486;BME280;6815;59.336;17.998;2023-07-13T11:24:16;52173.00;;;-145.37;42.49
13486;BME280;6815;59.336;17.998;2023-07-13T11:26:51;52067.19;;;-145.37;42.54
13486;BME280;6815;59.336;17.998;2023-07-13T11:31:43;52071.19;;;-145.37;41.99
13486;BME280;6815;59.336;17.998;2023-07-13T11:34:18;52101.13;;;-145.37;42.46
13486;BME280;6815;59.336;17.998;2023-07-13T11:36:47;52057.22;;;-145.37;42.49
13486;BME280;6815;59.336;17.998;2023-07-13T11:41:53;52065.19;;;-145.37;41.54
13486;BME280;6815;59.336;17.998;2023-07-13T11:44:21;52105.13;;;-145.37;41.73
13486;BME280;6815;59.336;17.998;2023-07-13T11:46:52;52097.13;;;-145.37;42.29
13486;BME280;6815;59.336;17.998;2023-07-13T11:49:20;52069.19;;;-145.37;42.27
13486;BME280;6815;59.336;17.998;2023-07-13T11:51:46;52053.22;;;-145.37;42.14
13486;BME280;6815;59.336;17.998;2023-07-13T11:54:32;52049.22;;;-145.37;42.48
13486;BME280;6815;59.336;17.998;2023-07-13T11:57:01;52057.22;;;-145.37;42.63
13486;BME280;6815;59.336;17.998;2023-07-13T11:59:32;52065.19;;;-145.37;42.60
13486;BME280;6815;59.336;17.998;2023-07-13T12:01:58;52061.22;;;-145.37;42.99
13486;BME280;6815;59.336;17.998;2023-07-13T12:04:29;52057.22;;;-145.37;42.96
13486;BME280;6815;59.336;17.998;2023-07-13T12:07:16;52077.19;;;-145.37;42.64
13486;BME280;6815;59.336;17.998;2023-07-13T12:09:42;52053.22;;;-145.37;42.41
13486;BME280;6815;59.336;17.998;2023-07-13T12:12:13;52071.19;;;-145.37;42.12
13486;BME280;6815;59.336;17.998;2023-07-13T12:14:39;52059.22;;;-145.37;42.00
13486;BME280;6815;59.336;17.998;2023-07-13T12:17:16;52065.19;;;-145.37;42.65
13486;BME280;6815;59.336;17.998;2023-07-13T12:19:43;52085.16;;;-145.37;42.87
13486;BME280;6815;59.336;17.998;2023-07-13T12:22:11;52071.19;;;-145.37;43.23
13486;BME280;6815;59.336;17.998;2023-07-13T12:24:39;52053.22;;;-145.37;43.19
13486;BME280;6815;59.336;17.998;2023-07-13T12:27:05;52077.19;;;-145.37;42.62
13486;BME280;6815;59.336;17.998;2023-07-13T12:29:32;52099.13;;;-145.37;42.19
13486;BME280;6815;59.336;17.998;2023-07-13T12:31:59;52013.31;;;-145.37;42.48
13486;BME280;6815;59.336;17.998;2023-07-13T12:34:26;52041.25;;;-145.37;42.55
13486;BME280;6815;59.336;17.998;2023-07-13T12:36:55;52033.25;;;-145.37;42.09
13486;BME280;6815;59.336;17.998;2023-07-13T12:41:53;52091.16;;;-145.37;41.92
13486;BME280;6815;59.336;17.998;2023-07-13T12:44:32;52051.22;;;-145.37;42.09
13486;BME280;6815;59.336;17.998;2023-07-13T12:47:12;52049.22;;;-145.37;41.90
13486;BME280;6815;59.336;17.998;2023-07-13T12:49:55;52095.16;;;-145.37;41.84
13486;BME280;6815;59.336;17.998;2023-07-13T12:52:24;52077.19;;;-145.37;41.38
13486;BME280;6815;59.336;17.998;2023-07-13T12:54:56;52065.19;;;-145.37;41.16
13486;BME280;6815;59.336;17.998;2023-07-13T12:57:22;52049.22;;;-145.37;40.70
13486;BME280;6815;59.336;17.998;2023-07-13T12:59:52;52051.22;;;-145.37;40.32
13486;BME280;6815;59.336;17.998;2023-07-13T13:02:32;52025.28;;;-145.37;40.38
13486;BME280;6815;59.336;17.998;2023-07-13T13:05:00;52069.19;;;-145.37;40.30
13486;BME280;6815;59.336;17.998;2023-07-13T13:07:26;52027.28;;;-145.37;40.56
13486;BME280;6815;59.336;17.998;2023-07-13T13:09:52;52071.19;;;-145.37;40.11
13486;BME280;6815;59.336;17.998;2023-07-13T13:12:22;52059.22;;;-145.37;40.26
13486;BME280;6815;59.336;17.998;2023-07-13T13:14:47;52069.19;;;-145.37;40.17
13486;BME280;6815;59.336;17.998;2023-07-13T13:17:20;52015.28;;;-145.37;39.96
13486;BME280;6815;59.336;17.998;2023-07-13T13:19:47;52075.19;;;-145.37;39.84
13486;BME280;6815;59.336;17.998;2023-07-13T13:22:12;52077.19;;;-145.37;39.89